sensor_id;sensor_type;location;lat;lon;timestamp;pressure;altitude;pressure_sealevel;temperature;humidity
61906;BME280;47863;55.766;37.672;2022-08-03T00:00:39;99973.91;;;19.88;57.99
61906;BME280;47863;55.766;37.672;2022-08-03T00:03:04;99973.50;;;19.91;58.41
61906;BME280;47863;55.766;37.672;2022-08-03T00:05:30;99971.59;;;19.91;58.27
61906;BME280;47863;55.766;37.672;2022-08-03T00:07:58;99973.88;;;19.94;57.68
61906;BME280;47863;55.766;37.672;2022-08-03T00:10:24;99979.09;;;19.96;57.62
61906;BME280;47863;55.766;37.672;2022-08-03T00:12:50;99968.69;;;19.93;57.84
61906;BME280;47863;55.766;37.672;2022-08-03T00:15:16;99973.88;;;19.94;57.67
61906;BME280;47863;55.766;37.672;2022-08-03T00:17:42;99976.59;;;19.94;58.13
61906;BME280;47863;55.766;37.672;2022-08-03T00:20:07;99974.72;;;19.95;57.70
61906;BME280;47863;55.766;37.672;2022-08-03T00:22:34;99974.94;;;19.93;57.77
61906;BME280;47863;55.766;37.672;2022-08-03T00:25:00;99974.31;;;19.91;58.01
61906;BME280;47863;55.766;37.672;2022-08-03T00:27:25;99980.63;;;19.85;58.38
61906;BME280;47863;55.766;37.672;2022-08-03T00:29:51;99984.84;;;19.81;57.92
61906;BME280;47863;55.766;37.672;2022-08-03T00:32:16;99982.75;;;19.76;58.62
61906;BME280;47863;55.766;37.672;2022-08-03T00:34:42;99981.50;;;19.72;58.09
61906;BME280;47863;55.766;37.672;2022-08-03T00:37:07;99977.75;;;19.67;59.15
61906;BME280;47863;55.766;37.672;2022-08-03T00:39:33;99959.84;;;19.52;58.79
61906;BME280;47863;55.766;37.672;2022-08-03T00:42:03;99969.22;;;19.56;59.15
61906;BME280;47863;55.766;37.672;2022-08-03T00:44:29;99973.88;;;19.49;59.38
61906;BME280;47863;55.766;37.672;2022-08-03T00:46:54;99965.72;;;19.42;59.76
61906;BME280;47863;55.766;37.672;2022-08-03T00:49:20;99957.88;;;19.28;60.12
61906;BME280;47863;55.766;37.672;2022-08-03T00:51:46;99971.00;;;19.37;60.37
61906;BME280;47863;55.766;37.672;2022-08-03T00:54:13;99965.56;;;19.31;60.00
61906;BME280;47863;55.766;37.672;2022-08-03T00:56:40;99959.72;;;19.27;60.61
61906;BME280;47863;55.766;37.672;2022-08-03T00:59:08;99967.88;;;19.27;61.02
61906;BME280;47863;55.766;37.672;2022-08-03T01:01:34;99955.78;;;19.16;60.82
61906;BME280;47863;55.766;37.672;2022-08-03T01:04:00;99952.88;;;19.11;61.02
61906;BME280;47863;55.766;37.672;2022-08-03T01:06:43;99940.38;;;19.03;60.27
61906;BME280;47863;55.766;37.672;2022-08-03T01:09:24;99966.03;;;19.14;61.15
61906;BME280;47863;55.766;37.672;2022-08-03T01:12:03;99966.44;;;19.11;61.38
61906;BME280;47863;55.766;37.672;2022-08-03T01:14:37;99951.03;;;18.98;61.30
61906;BME280;47863;55.766;37.672;2022-08-03T01:19:57;99954.78;;;18.97;61.85
61906;BME280;47863;55.766;37.672;2022-08-03T01:25:39;99964.63;;;18.98;61.58
61906;BME280;47863;55.766;37.672;2022-08-03T01:30:44;99964.19;;;18.95;62.29
61906;BME280;47863;55.766;37.672;2022-08-03T01:33:20;99969.84;;;18.93;62.29
61906;BME280;47863;55.766;37.672;2022-08-03T01:35:59;99976.94;;;18.88;62.73
61906;BME280;47863;55.766;37.672;2022-08-03T01:38:31;99971.91;;;18.91;62.38
61906;BME280;47863;55.766;37.672;2022-08-03T01:41:03;99958.16;;;18.79;62.74
61906;BME280;47863;55.766;37.672;2022-08-03T01:43:30;99967.34;;;18.85;62.30
61906;BME280;47863;55.766;37.672;2022-08-03T01:45:56;99968.41;;;18.84;62.84
61906;BME280;47863;55.766;37.672;2022-08-03T01:48:23;99978.63;;;18.89;62.57
61906;BME280;47863;55.766;37.672;2022-08-03T01:50:50;99971.94;;;18.85;62.81
61906;BME280;47863;55.766;37.672;2022-08-03T01:53:19;99972.38;;;18.88;62.74
61906;BME280;47863;55.766;37.672;2022-08-03T01:55:47;99972.38;;;18.88;63.79
61906;BME280;47863;55.766;37.672;2022-08-03T01:58:14;99975.50;;;18.92;62.74
61906;BME280;47863;55.766;37.672;2022-08-03T02:00:41;99978.63;;;18.89;62.65
61906;BME280;47863;55.766;37.672;2022-08-03T02:03:08;99975.06;;;18.95;62.61
61906;BME280;47863;55.766;37.672;2022-08-03T02:05:38;99977.56;;;18.96;62.81
61906;BME280;47863;55.766;37.672;2022-08-03T02:08:04;99984.44;;;18.99;63.29
61906;BME280;47863;55.766;37.672;2022-08-03T02:10:33;99978.38;;;18.97;63.30
61906;BME280;47863;55.766;37.672;2022-08-03T02:13:00;99984.84;;;19.02;62.99
61906;BME280;47863;55.766;37.672;2022-08-03T02:15:27;99970.66;;;19.00;62.75
61906;BME280;47863;55.766;37.672;2022-08-03T02:17:55;99980.47;;;19.08;62.86
61906;BME280;47863;55.766;37.672;2022-08-03T02:20:22;99981.72;;;19.12;62.75
61906;BME280;47863;55.766;37.672;2022-08-03T02:22:49;99976.06;;;19.07;62.84
61906;BME280;47863;55.766;37.672;2022-08-03T02:25:15;99987.97;;;19.19;62.83
61906;BME280;47863;55.766;37.672;2022-08-03T02:27:58;99983.53;;;19.25;62.39
61906;BME280;47863;55.766;37.672;2022-08-03T02:30:30;99992.53;;;19.26;62.92
61906;BME280;47863;55.766;37.672;2022-08-03T02:32:59;99983.94;;;19.29;62.20
61906;BME280;47863;55.766;37.672;2022-08-03T02:35:27;99987.91;;;19.33;62.36
61906;BME280;47863;55.766;37.672;2022-08-03T02:37:58;99991.66;;;19.38;62.36
61906;BME280;47863;55.766;37.672;2022-08-03T02:40:27;99988.53;;;19.41;62.92
61906;BME280;47863;55.766;37.672;2022-08-03T02:42:56;99996.22;;;19.45;63.05
61906;BME280;47863;55.766;37.672;2022-08-03T02:45:23;99999.34;;;19.48;62.69
61906;BME280;47863;55.766;37.672;2022-08-03T02:47:52;99993.50;;;19.51;62.55
61906;BME280;47863;55.766;37.672;2022-08-03T02:50:21;99990.34;;;19.54;63.00
61906;BME280;47863;55.766;37.672;2022-08-03T02:52:48;99977.84;;;19.47;62.03
61906;BME280;47863;55.766;37.672;2022-08-03T02:55:16;99984.28;;;19.52;62.24
61906;BME280;47863;55.766;37.672;2022-08-03T02:57:43;99974.28;;;19.46;62.03
61906;BME280;47863;55.766;37.672;2022-08-03T03:00:11;99986.16;;;19.58;62.05
61906;BME280;47863;55.766;37.672;2022-08-03T03:02:39;99987.38;;;19.62;62.31
61906;BME280;47863;55.766;37.672;2022-08-03T03:05:06;99980.28;;;19.61;62.01
61906;BME280;47863;55.766;37.672;2022-08-03T03:07:33;99984.25;;;19.66;62.08
61906;BME280;47863;55.766;37.672;2022-08-03T03:09:59;100002.78;;;19.82;61.83
61906;BME280;47863;55.766;37.672;2022-08-03T03:12:26;99992.75;;;19.83;61.41
61906;BME280;47863;55.766;37.672;2022-08-03T03:14:52;100005.72;;;19.87;61.23
61906;BME280;47863;55.766;37.672;2022-08-03T03:17:18;100010.47;;;19.92;60.89
61906;BME280;47863;55.766;37.672;2022-08-03T03:19:46;100003.16;;;19.92;61.19
61906;BME280;47863;55.766;37.672;2022-08-03T03:22:14;100000.81;;;20.03;61.23
61906;BME280;47863;55.766;37.672;2022-08-03T03:24:41;100003.91;;;20.06;61.00
61906;BME280;47863;55.766;37.672;2022-08-03T03:27:07;99994.94;;;20.06;60.07
61906;BME280;47863;55.766;37.672;2022-08-03T03:29:33;100009.50;;;20.18;60.65
61906;BME280;47863;55.766;37.672;2022-08-03T03:32:00;100022.00;;;20.26;59.98
61906;BME280;47863;55.766;37.672;2022-08-03T03:34:28;100010.25;;;20.32;59.84
61906;BME280;47863;55.766;37.672;2022-08-03T03:36:53;100016.28;;;20.34;60.19
61906;BME280;47863;55.766;37.672;2022-08-03T03:39:19;100008.78;;;20.36;59.63
61906;BME280;47863;55.766;37.672;2022-08-03T03:41:45;100022.47;;;20.48;59.23
61906;BME280;47863;55.766;37.672;2022-08-03T03:44:11;100015.56;;;20.52;59.17
61906;BME280;47863;55.766;37.672;2022-08-03T03:46:38;100011.75;;;20.59;59.16
61906;BME280;47863;55.766;37.672;2022-08-03T03:49:05;100014.66;;;20.65;59.15
61906;BME280;47863;55.766;37.672;2022-08-03T03:51:31;100020.03;;;20.71;59.08
61906;BME280;47863;55.766;37.672;2022-08-03T03:53:59;100024.16;;;20.80;58.02
61906;BME280;47863;55.766;37.672;2022-08-03T03:56:26;100020.13;;;20.83;58.08
61906;BME280;47863;55.766;37.672;2022-08-03T03:58:52;100018.97;;;20.97;58.03
61906;BME280;47863;55.766;37.672;2022-08-03T04:01:18;100023.31;;;21.05;57.52
61906;BME280;47863;55.766;37.672;2022-08-03T04:03:44;100011.50;;;21.11;57.54
61906;BME280;47863;55.766;37.672;2022-08-03T04:06:10;100020.38;;;21.25;57.04
61906;BME280;47863;55.766;37.672;2022-08-03T04:08:55;100021.69;;;21.41;56.47
61906;BME280;47863;55.766;37.672;2022-08-03T04:11:45;100013.66;;;21.46;56.78
61906;BME280;47863;55.766;37.672;2022-08-03T04:14:16;100030.94;;;21.58;56.48
61906;BME280;47863;55.766;37.672;2022-08-03T04:16:46;100020.41;;;21.62;56.24
61906;BME280;47863;55.766;37.672;2022-08-03T04:19:18;100032.22;;;21.74;56.37
61906;BME280;47863;55.766;37.672;2022-08-03T04:21:47;100038.03;;;21.78;55.92
61906;BME280;47863;55.766;37.672;2022-08-03T04:24:16;100034.41;;;21.84;55.96
61906;BME280;47863;55.766;37.672;2022-08-03T04:26:44;100030.00;;;21.83;56.51
61906;BME280;47863;55.766;37.672;2022-08-03T04:29:10;100037.19;;;21.96;56.09
61906;BME280;47863;55.766;37.672;2022-08-03T04:31:38;100032.94;;;22.00;54.96
61906;BME280;47863;55.766;37.672;2022-08-03T04:34:06;100025.97;;;22.04;55.32
61906;BME280;47863;55.766;37.672;2022-08-03T04:36:36;100025.47;;;22.07;56.84
61906;BME280;47863;55.766;37.672;2022-08-03T04:39:04;100030.75;;;22.21;55.13
61906;BME280;47863;55.766;37.672;2022-08-03T04:41:31;100034.28;;;22.28;54.95
61906;BME280;47863;55.766;37.672;2022-08-03T04:44:00;100033.56;;;22.32;55.02
61906;BME280;47863;55.766;37.672;2022-08-03T04:46:37;100023.63;;;22.38;54.58
61906;BME280;47863;55.766;37.672;2022-08-03T04:49:07;100025.78;;;22.48;54.94
61906;BME280;47863;55.766;37.672;2022-08-03T04:51:33;100035.75;;;22.54;54.31
61906;BME280;47863;55.766;37.672;2022-08-03T04:53:59;100025.66;;;22.54;54.39
61906;BME280;47863;55.766;37.672;2022-08-03T04:56:26;100033.41;;;22.69;54.58
61906;BME280;47863;55.766;37.672;2022-08-03T04:58:51;100035.81;;;22.77;55.44
61906;BME280;47863;55.766;37.672;2022-08-03T05:01:17;100036.75;;;22.83;54.28
61906;BME280;47863;55.766;37.672;2022-08-03T05:03:47;100036.63;;;22.90;53.49
61906;BME280;47863;55.766;37.672;2022-08-03T05:06:13;100032.97;;;22.96;52.95
61906;BME280;47863;55.766;37.672;2022-08-03T05:08:39;100037.03;;;23.05;53.38
61906;BME280;47863;55.766;37.672;2022-08-03T05:11:04;100030.38;;;23.13;53.82
61906;BME280;47863;55.766;37.672;2022-08-03T05:13:30;100036.81;;;23.19;53.31
61906;BME280;47863;55.766;37.672;2022-08-03T05:15:56;100014.69;;;23.20;53.08
61906;BME280;47863;55.766;37.672;2022-08-03T05:18:22;100030.16;;;23.38;53.37
61906;BME280;47863;55.766;37.672;2022-08-03T05:20:47;100026.44;;;23.56;52.79
61906;BME280;47863;55.766;37.672;2022-08-03T05:23:13;100027.31;;;23.85;52.04
61906;BME280;47863;55.766;37.672;2022-08-03T05:25:38;100035.44;;;24.09;51.77
61906;BME280;47863;55.766;37.672;2022-08-03T05:28:04;100033.75;;;24.37;50.98
61906;BME280;47863;55.766;37.672;2022-08-03T05:30:30;100028.25;;;24.65;49.47
61906;BME280;47863;55.766;37.672;2022-08-03T05:32:55;100021.72;;;24.83;48.90
61906;BME280;47863;55.766;37.672;2022-08-03T05:35:21;100033.53;;;25.06;50.06
61906;BME280;47863;55.766;37.672;2022-08-03T05:37:49;100034.41;;;25.06;47.84
61906;BME280;47863;55.766;37.672;2022-08-03T05:40:15;100039.13;;;25.11;49.65
61906;BME280;47863;55.766;37.672;2022-08-03T05:42:40;100048.00;;;25.18;49.37
61906;BME280;47863;55.766;37.672;2022-08-03T05:45:06;100046.69;;;25.38;47.67
61906;BME280;47863;55.766;37.672;2022-08-03T05:47:44;100040.09;;;25.83;46.68
61906;BME280;47863;55.766;37.672;2022-08-03T05:50:11;100048.94;;;26.34;45.51
61906;BME280;47863;55.766;37.672;2022-08-03T05:52:38;100040.97;;;26.60;43.67
61906;BME280;47863;55.766;37.672;2022-08-03T05:55:05;100035.31;;;26.71;43.72
61906;BME280;47863;55.766;37.672;2022-08-03T05:57:31;100035.88;;;26.74;45.17
61906;BME280;47863;55.766;37.672;2022-08-03T05:59:57;100037.84;;;26.78;44.66
61906;BME280;47863;55.766;37.672;2022-08-03T06:02:22;100034.31;;;26.83;43.40
61906;BME280;47863;55.766;37.672;2022-08-03T06:04:48;100039.53;;;26.84;43.30
61906;BME280;47863;55.766;37.672;2022-08-03T06:07:14;100035.44;;;26.87;43.94
61906;BME280;47863;55.766;37.672;2022-08-03T06:09:39;100030.75;;;26.87;44.24
61906;BME280;47863;55.766;37.672;2022-08-03T06:12:06;100028.06;;;26.93;44.55
61906;BME280;47863;55.766;37.672;2022-08-03T06:14:32;100029.84;;;27.14;42.60
61906;BME280;47863;55.766;37.672;2022-08-03T06:16:57;100039.38;;;27.39;43.10
61906;BME280;47863;55.766;37.672;2022-08-03T06:19:23;100037.25;;;27.51;42.47
61906;BME280;47863;55.766;37.672;2022-08-03T06:21:49;100034.28;;;27.63;41.67
61906;BME280;47863;55.766;37.672;2022-08-03T06:24:15;100045.88;;;27.80;40.82
61906;BME280;47863;55.766;37.672;2022-08-03T06:26:41;100035.19;;;27.84;41.05
61906;BME280;47863;55.766;37.672;2022-08-03T06:29:06;100039.09;;;27.93;42.31
61906;BME280;47863;55.766;37.672;2022-08-03T06:31:32;100042.69;;;28.04;40.80
61906;BME280;47863;55.766;37.672;2022-08-03T06:33:58;100049.91;;;28.15;41.77
61906;BME280;47863;55.766;37.672;2022-08-03T06:36:23;100047.72;;;28.22;40.61
61906;BME280;47863;55.766;37.672;2022-08-03T06:38:50;100043.06;;;28.28;39.65
61906;BME280;47863;55.766;37.672;2022-08-03T06:41:15;100029.00;;;28.29;39.77
61906;BME280;47863;55.766;37.672;2022-08-03T06:43:41;100045.03;;;28.68;38.53
61906;BME280;47863;55.766;37.672;2022-08-03T06:46:06;100045.31;;;28.98;38.64
61906;BME280;47863;55.766;37.672;2022-08-03T06:48:32;100042.53;;;29.18;37.79
61906;BME280;47863;55.766;37.672;2022-08-03T06:50:58;100040.63;;;29.19;37.37
61906;BME280;47863;55.766;37.672;2022-08-03T06:53:23;100048.31;;;29.32;36.90
61906;BME280;47863;55.766;37.672;2022-08-03T06:55:49;100054.66;;;29.43;36.48
61906;BME280;47863;55.766;37.672;2022-08-03T06:58:14;100051.56;;;29.55;35.47
61906;BME280;47863;55.766;37.672;2022-08-03T07:00:40;100060.38;;;29.72;34.76
61906;BME280;47863;55.766;37.672;2022-08-03T07:03:06;100049.56;;;29.86;34.21
61906;BME280;47863;55.766;37.672;2022-08-03T07:05:31;100055.44;;;30.19;34.27
61906;BME280;47863;55.766;37.672;2022-08-03T07:07:59;100056.28;;;30.98;35.11
61906;BME280;47863;55.766;37.672;2022-08-03T07:10:26;100060.16;;;31.99;32.94
61906;BME280;47863;55.766;37.672;2022-08-03T07:12:52;100054.53;;;32.99;29.60
61906;BME280;47863;55.766;37.672;2022-08-03T07:15:18;100045.19;;;33.83;28.31
61906;BME280;47863;55.766;37.672;2022-08-03T07:17:44;100061.72;;;34.98;26.43
61906;BME280;47863;55.766;37.672;2022-08-03T07:20:10;100051.06;;;36.20;24.48
61906;BME280;47863;55.766;37.672;2022-08-03T07:22:35;100058.78;;;37.40;22.51
61906;BME280;47863;55.766;37.672;2022-08-03T07:25:01;100052.88;;;38.09;21.69
61906;BME280;47863;55.766;37.672;2022-08-03T07:27:29;100053.75;;;38.98;20.76
61906;BME280;47863;55.766;37.672;2022-08-03T07:29:56;100063.91;;;39.97;20.12
61906;BME280;47863;55.766;37.672;2022-08-03T07:32:22;100059.22;;;40.82;18.78
61906;BME280;47863;55.766;37.672;2022-08-03T07:34:48;100057.94;;;41.72;18.28
61906;BME280;47863;55.766;37.672;2022-08-03T07:37:13;100064.56;;;42.15;18.16
61906;BME280;47863;55.766;37.672;2022-08-03T07:39:39;100060.03;;;42.30;15.98
61906;BME280;47863;55.766;37.672;2022-08-03T07:42:04;100062.16;;;42.72;15.02
61906;BME280;47863;55.766;37.672;2022-08-03T07:44:30;100067.41;;;43.16;14.05
61906;BME280;47863;55.766;37.672;2022-08-03T07:46:55;100051.75;;;43.42;14.32
61906;BME280;47863;55.766;37.672;2022-08-03T07:49:22;100063.63;;;43.78;14.12
61906;BME280;47863;55.766;37.672;2022-08-03T07:51:47;100062.28;;;43.98;14.02
61906;BME280;47863;55.766;37.672;2022-08-03T07:54:32;100067.78;;;43.87;14.10
61906;BME280;47863;55.766;37.672;2022-08-03T07:56:58;100072.69;;;43.90;14.06
61906;BME280;47863;55.766;37.672;2022-08-03T07:59:24;100074.91;;;44.34;14.02
61906;BME280;47863;55.766;37.672;2022-08-03T08:01:49;100066.22;;;45.22;13.14
61906;BME280;47863;55.766;37.672;2022-08-03T08:04:18;100079.03;;;46.05;11.88
61906;BME280;47863;55.766;37.672;2022-08-03T08:06:43;100077.13;;;46.30;11.53
61906;BME280;47863;55.766;37.672;2022-08-03T08:09:09;100081.28;;;45.81;11.55
61906;BME280;47863;55.766;37.672;2022-08-03T08:11:36;100084.31;;;45.13;11.87
61906;BME280;47863;55.766;37.672;2022-08-03T08:14:02;100065.69;;;45.05;13.17
61906;BME280;47863;55.766;37.672;2022-08-03T08:16:29;100085.44;;;44.68;13.10
61906;BME280;47863;55.766;37.672;2022-08-03T08:18:54;100087.81;;;44.32;13.60
61906;BME280;47863;55.766;37.672;2022-08-03T08:21:20;100080.94;;;44.63;12.98
61906;BME280;47863;55.766;37.672;2022-08-03T08:23:45;100079.72;;;45.39;12.68
61906;BME280;47863;55.766;37.672;2022-08-03T08:26:11;100074.19;;;46.09;11.89
61906;BME280;47863;55.766;37.672;2022-08-03T08:28:37;100074.94;;;46.83;11.95
61906;BME280;47863;55.766;37.672;2022-08-03T08:31:02;100070.13;;;47.23;10.97
61906;BME280;47863;55.766;37.672;2022-08-03T08:33:28;100073.78;;;47.41;10.63
61906;BME280;47863;55.766;37.672;2022-08-03T08:35:54;100077.38;;;47.85;10.21
61906;BME280;47863;55.766;37.672;2022-08-03T08:38:20;100081.44;;;47.95;10.30
61906;BME280;47863;55.766;37.672;2022-08-03T08:40:48;100080.13;;;48.39;10.64
61906;BME280;47863;55.766;37.672;2022-08-03T08:43:13;100074.28;;;48.75;10.45
61906;BME280;47863;55.766;37.672;2022-08-03T08:45:40;100080.81;;;49.28;9.93
61906;BME280;47863;55.766;37.672;2022-08-03T08:48:06;100067.47;;;50.04;9.32
61906;BME280;47863;55.766;37.672;2022-08-03T08:50:34;100082.06;;;49.75;9.76
61906;BME280;47863;55.766;37.672;2022-08-03T08:53:02;100071.75;;;48.84;10.12
61906;BME280;47863;55.766;37.672;2022-08-03T08:55:28;100075.28;;;48.21;10.60
61906;BME280;47863;55.766;37.672;2022-08-03T08:58:15;100074.19;;;48.82;11.08
61906;BME280;47863;55.766;37.672;2022-08-03T09:00:45;100041.22;;;48.14;10.34
61906;BME280;47863;55.766;37.672;2022-08-03T09:03:13;100076.88;;;48.37;10.61
61906;BME280;47863;55.766;37.672;2022-08-03T09:05:42;100079.84;;;48.93;10.57
61906;BME280;47863;55.766;37.672;2022-08-03T09:08:08;100088.13;;;49.25;10.25
61906;BME280;47863;55.766;37.672;2022-08-03T09:10:33;100077.50;;;49.81;10.15
61906;BME280;47863;55.766;37.672;2022-08-03T09:13:00;100083.91;;;50.27;9.30
61906;BME280;47863;55.766;37.672;2022-08-03T09:15:27;100067.41;;;50.46;9.49
61906;BME280;47863;55.766;37.672;2022-08-03T09:17:55;100071.31;;;50.59;9.26
61906;BME280;47863;55.766;37.672;2022-08-03T09:20:24;100078.00;;;50.45;9.29
61906;BME280;47863;55.766;37.672;2022-08-03T09:22:55;100083.03;;;49.96;9.59
61906;BME280;47863;55.766;37.672;2022-08-03T09:25:38;100086.31;;;49.53;9.94
61906;BME280;47863;55.766;37.672;2022-08-03T09:28:09;100079.34;;;48.35;10.21
61906;BME280;47863;55.766;37.672;2022-08-03T09:30:38;100089.88;;;48.27;10.49
61906;BME280;47863;55.766;37.672;2022-08-03T09:33:06;100081.50;;;47.48;11.15
61906;BME280;47863;55.766;37.672;2022-08-03T09:35:32;100080.38;;;45.70;11.88
61906;BME280;47863;55.766;37.672;2022-08-03T09:40:37;100067.09;;;41.37;15.58
61906;BME280;47863;55.766;37.672;2022-08-03T09:43:03;100059.34;;;39.68;17.02
61906;BME280;47863;55.766;37.672;2022-08-03T09:45:28;100072.06;;;38.62;17.79
61906;BME280;47863;55.766;37.672;2022-08-03T09:47:54;100058.00;;;37.99;18.93
61906;BME280;47863;55.766;37.672;2022-08-03T09:50:21;100070.81;;;39.05;17.96
61906;BME280;47863;55.766;37.672;2022-08-03T09:52:46;100067.84;;;40.61;16.49
61906;BME280;47863;55.766;37.672;2022-08-03T09:55:16;100062.63;;;41.84;15.03
61906;BME280;47863;55.766;37.672;2022-08-03T09:57:43;100060.97;;;41.83;15.16
61906;BME280;47863;55.766;37.672;2022-08-03T10:00:13;100057.72;;;41.01;16.20
61906;BME280;47863;55.766;37.672;2022-08-03T10:02:43;100056.44;;;40.01;17.10
61906;BME280;47863;55.766;37.672;2022-08-03T10:05:11;100059.88;;;38.79;17.93
61906;BME280;47863;55.766;37.672;2022-08-03T10:07:45;100068.16;;;37.82;18.27
61906;BME280;47863;55.766;37.672;2022-08-03T10:10:12;100061.09;;;36.56;19.70
61906;BME280;47863;55.766;37.672;2022-08-03T10:12:39;100072.94;;;35.78;21.15
61906;BME280;47863;55.766;37.672;2022-08-03T10:15:06;100066.78;;;34.95;22.44
61906;BME280;47863;55.766;37.672;2022-08-03T10:17:32;100068.88;;;34.31;22.86
61906;BME280;47863;55.766;37.672;2022-08-03T10:19:58;100070.91;;;33.89;23.71
61906;BME280;47863;55.766;37.672;2022-08-03T10:22:32;100059.34;;;33.54;23.03
61906;BME280;47863;55.766;37.672;2022-08-03T10:25:02;100066.66;;;33.36;24.45
61906;BME280;47863;55.766;37.672;2022-08-03T10:27:31;100079.34;;;33.84;24.40
61906;BME280;47863;55.766;37.672;2022-08-03T10:30:03;100077.13;;;34.59;23.12
61906;BME280;47863;55.766;37.672;2022-08-03T10:32:33;100063.50;;;35.16;22.90
61906;BME280;47863;55.766;37.672;2022-08-03T10:35:04;100068.63;;;35.63;22.10
61906;BME280;47863;55.766;37.672;2022-08-03T10:37:31;100066.72;;;35.81;20.48
61906;BME280;47863;55.766;37.672;2022-08-03T10:39:59;100056.19;;;35.06;22.23
61906;BME280;47863;55.766;37.672;2022-08-03T10:42:25;100061.91;;;34.56;23.00
61906;BME280;47863;55.766;37.672;2022-08-03T10:45:02;100073.53;;;34.22;22.85
61906;BME280;47863;55.766;37.672;2022-08-03T10:47:29;100079.03;;;33.71;23.86
61906;BME280;47863;55.766;37.672;2022-08-03T10:49:56;100070.44;;;33.26;24.91
61906;BME280;47863;55.766;37.672;2022-08-03T10:52:22;100061.69;;;32.86;25.60
61906;BME280;47863;55.766;37.672;2022-08-03T10:54:48;100062.19;;;32.55;26.13
61906;BME280;47863;55.766;37.672;2022-08-03T10:57:44;100076.31;;;32.54;24.97
61906;BME280;47863;55.766;37.672;2022-08-03T11:00:32;100068.84;;;32.35;25.00
61906;BME280;47863;55.766;37.672;2022-08-03T11:03:11;100074.19;;;32.84;24.94
61906;BME280;47863;55.766;37.672;2022-08-03T11:05:46;100076.91;;;33.35;26.00
61906;BME280;47863;55.766;37.672;2022-08-03T11:08:20;100072.97;;;33.69;25.74
61906;BME280;47863;55.766;37.672;2022-08-03T11:10:46;100074.81;;;33.88;24.78
61906;BME280;47863;55.766;37.672;2022-08-03T11:13:20;100069.44;;;33.91;25.47
61906;BME280;47863;55.766;37.672;2022-08-03T11:15:48;100076.31;;;33.52;25.30
61906;BME280;47863;55.766;37.672;2022-08-03T11:18:15;100069.91;;;33.10;25.12
61906;BME280;47863;55.766;37.672;2022-08-03T11:20:54;100071.53;;;32.78;25.01
61906;BME280;47863;55.766;37.672;2022-08-03T11:23:40;100070.28;;;32.33;25.39
61906;BME280;47863;55.766;37.672;2022-08-03T11:26:13;100078.88;;;31.88;26.63
61906;BME280;47863;55.766;37.672;2022-08-03T11:28:39;100076.81;;;31.51;27.01
61906;BME280;47863;55.766;37.672;2022-08-03T11:34:15;100062.44;;;31.19;26.38
61906;BME280;47863;55.766;37.672;2022-08-03T11:37:19;100068.97;;;31.05;27.12
61906;BME280;47863;55.766;37.672;2022-08-03T11:39:47;100064.16;;;30.81;28.19
61906;BME280;47863;55.766;37.672;2022-08-03T11:44:55;100061.81;;;30.64;28.72
61906;BME280;47863;55.766;37.672;2022-08-03T11:47:23;100071.50;;;30.61;29.62
61906;BME280;47863;55.766;37.672;2022-08-03T11:49:54;100041.19;;;30.51;28.79
61906;BME280;47863;55.766;37.672;2022-08-03T11:52:20;100062.97;;;30.92;28.93
61906;BME280;47863;55.766;37.672;2022-08-03T11:54:50;100051.81;;;32.04;27.11
61906;BME280;47863;55.766;37.672;2022-08-03T11:57:30;100069.34;;;33.83;26.15
61906;BME280;47863;55.766;37.672;2022-08-03T11:59:55;100072.03;;;34.97;22.85
61906;BME280;47863;55.766;37.672;2022-08-03T12:02:21;100043.34;;;35.19;22.78
61906;BME280;47863;55.766;37.672;2022-08-03T12:04:55;100068.34;;;35.33;22.53
61906;BME280;47863;55.766;37.672;2022-08-03T12:07:29;100072.34;;;34.73;24.06
61906;BME280;47863;55.766;37.672;2022-08-03T12:10:12;100057.25;;;34.29;23.25
61906;BME280;47863;55.766;37.672;2022-08-03T12:12:39;100064.53;;;33.74;25.45
61906;BME280;47863;55.766;37.672;2022-08-03T12:15:06;100066.88;;;33.39;24.91
61906;BME280;47863;55.766;37.672;2022-08-03T12:17:40;100055.84;;;33.21;25.29
61906;BME280;47863;55.766;37.672;2022-08-03T12:20:08;100052.16;;;33.53;25.01
61906;BME280;47863;55.766;37.672;2022-08-03T12:22:39;100052.72;;;34.55;24.27
61906;BME280;47863;55.766;37.672;2022-08-03T12:25:08;100065.63;;;36.08;22.17
61906;BME280;47863;55.766;37.672;2022-08-03T12:27:34;100057.19;;;37.30;21.37
61906;BME280;47863;55.766;37.672;2022-08-03T12:30:00;100058.50;;;38.43;19.67
61906;BME280;47863;55.766;37.672;2022-08-03T12:32:27;100048.44;;;39.30;18.89
61906;BME280;47863;55.766;37.672;2022-08-03T12:34:54;100058.84;;;40.03;18.76
61906;BME280;47863;55.766;37.672;2022-08-03T12:37:24;100046.34;;;40.53;16.94
61906;BME280;47863;55.766;37.672;2022-08-03T12:42:16;100056.09;;;41.00;17.29
61906;BME280;47863;55.766;37.672;2022-08-03T12:44:42;100067.78;;;41.02;16.98
61906;BME280;47863;55.766;37.672;2022-08-03T12:47:10;100029.59;;;40.85;16.82
61906;BME280;47863;55.766;37.672;2022-08-03T12:49:51;100059.09;;;41.39;17.54
61906;BME280;47863;55.766;37.672;2022-08-03T12:52:19;100058.63;;;41.05;17.25
61906;BME280;47863;55.766;37.672;2022-08-03T12:54:55;100049.06;;;40.78;16.77
61906;BME280;47863;55.766;37.672;2022-08-03T12:57:21;100053.63;;;40.01;18.13
61906;BME280;47863;55.766;37.672;2022-08-03T12:59:47;100056.03;;;39.29;17.96
61906;BME280;47863;55.766;37.672;2022-08-03T13:04:43;100057.31;;;38.11;19.61
61906;BME280;47863;55.766;37.672;2022-08-03T13:07:10;100055.13;;;37.48;20.44
61906;BME280;47863;55.766;37.672;2022-08-03T13:12:13;100062.50;;;36.01;20.56